Madison, Nebraska
Current Conditions -  °F | °C
As of 4:56 AM on Friday 31 Oct 2014 (Local Time) from KOFK Reporting Station
Clear Clear  
Wind Chill: 17°   Ceiling: Unl
Heat Index: 27°   Visibility: 10mi
Dew Point: 19°   Wind: 12mph
Humidity: 72%   Direction: 340°NNW
Pressure: 30.52"   Gusts: NA
Location:  41.83°N, 97.46°W
Report Text: KOFK 310956Z AUTO 34010KT 10SM CLR M03/M07 A3052 RMK AO2 SLP348 T10281072
Loading
Personal Weather Stations






























Interactive Weather Map
Tropical Storm Tracking
New forecast layout! Learn more

10-Day Weather Forecast

Advertisements
Track Severe Weather on mobile